sensor_id;sensor_type;location;lat;lon;timestamp;pressure;altitude;pressure_sealevel;temperature;humidity
83483;BME280;73420;32.678;-85.380;2024-01-10T00:01:08;97095.34;;;17.75;24.88
83483;BME280;73420;32.678;-85.380;2024-01-10T00:03:33;97108.38;;;17.32;25.22
83483;BME280;73420;32.678;-85.380;2024-01-10T00:05:59;97110.79;;;17.51;24.64
83483;BME280;73420;32.678;-85.380;2024-01-10T00:08:24;97112.61;;;16.77;23.41
83483;BME280;73420;32.678;-85.380;2024-01-10T00:10:50;97121.80;;;16.61;25.34
83483;BME280;73420;32.678;-85.380;2024-01-10T00:13:15;97127.70;;;16.42;24.61
83483;BME280;73420;32.678;-85.380;2024-01-10T00:15:40;97121.53;;;16.11;24.51
83483;BME280;73420;32.678;-85.380;2024-01-10T00:18:06;97146.48;;;15.93;25.12
83483;BME280;73420;32.678;-85.380;2024-01-10T00:20:31;97150.55;;;15.99;24.71
83483;BME280;73420;32.678;-85.380;2024-01-10T00:22:57;97153.12;;;16.61;24.15
83483;BME280;73420;32.678;-85.380;2024-01-10T00:25:22;97149.34;;;16.18;24.90
83483;BME280;73420;32.678;-85.380;2024-01-10T00:27:48;97160.10;;;15.98;25.05
83483;BME280;73420;32.678;-85.380;2024-01-10T00:30:14;97176.51;;;16.24;24.89
83483;BME280;73420;32.678;-85.380;2024-01-10T00:32:39;97186.75;;;15.48;24.95
83483;BME280;73420;32.678;-85.380;2024-01-10T00:35:04;97192.22;;;15.38;25.54
83483;BME280;73420;32.678;-85.380;2024-01-10T00:37:30;97219.64;;;15.18;26.46
83483;BME280;73420;32.678;-85.380;2024-01-10T00:39:55;97228.18;;;15.25;25.80
83483;BME280;73420;32.678;-85.380;2024-01-10T00:42:21;97235.46;;;14.65;26.41
83483;BME280;73420;32.678;-85.380;2024-01-10T00:44:46;97239.42;;;14.68;26.84
83483;BME280;73420;32.678;-85.380;2024-01-10T00:47:12;97248.05;;;14.73;26.54
83483;BME280;73420;32.678;-85.380;2024-01-10T00:49:37;97266.29;;;14.28;26.46
83483;BME280;73420;32.678;-85.380;2024-01-10T00:52:03;97278.32;;;14.41;26.38
83483;BME280;73420;32.678;-85.380;2024-01-10T00:54:29;97290.94;;;12.53;27.19
83483;BME280;73420;32.678;-85.380;2024-01-10T00:56:54;97303.55;;;12.51;27.03
83483;BME280;73420;32.678;-85.380;2024-01-10T00:59:19;97319.15;;;12.72;27.33
83483;BME280;73420;32.678;-85.380;2024-01-10T01:01:45;97328.84;;;13.43;27.26
83483;BME280;73420;32.678;-85.380;2024-01-10T01:04:10;97337.53;;;12.45;26.84
83483;BME280;73420;32.678;-85.380;2024-01-10T01:06:36;97340.28;;;12.83;27.06
83483;BME280;73420;32.678;-85.380;2024-01-10T01:09:02;97358.12;;;12.20;27.45
83483;BME280;73420;32.678;-85.380;2024-01-10T01:11:27;97372.44;;;12.45;26.60
83483;BME280;73420;32.678;-85.380;2024-01-10T01:13:52;97365.57;;;12.14;25.58
83483;BME280;73420;32.678;-85.380;2024-01-10T01:16:18;97386.17;;;11.72;26.22
83483;BME280;73420;32.678;-85.380;2024-01-10T01:18:44;97385.86;;;11.58;26.37
83483;BME280;73420;32.678;-85.380;2024-01-10T01:21:09;97399.27;;;10.90;26.19
83483;BME280;73420;32.678;-85.380;2024-01-10T01:23:35;97417.25;;;11.61;25.96
83483;BME280;73420;32.678;-85.380;2024-01-10T01:26:00;97429.66;;;11.29;25.89
83483;BME280;73420;32.678;-85.380;2024-01-10T01:28:26;97434.02;;;11.13;25.87
83483;BME280;73420;32.678;-85.380;2024-01-10T01:30:51;97443.72;;;11.21;25.41
83483;BME280;73420;32.678;-85.380;2024-01-10T01:33:16;97443.56;;;11.54;25.49
83483;BME280;73420;32.678;-85.380;2024-01-10T01:35:42;97489.58;;;11.58;26.17
83483;BME280;73420;32.678;-85.380;2024-01-10T01:38:07;97479.78;;;11.08;26.76
83483;BME280;73420;32.678;-85.380;2024-01-10T01:40:33;97502.50;;;11.09;26.06
83483;BME280;73420;32.678;-85.380;2024-01-10T01:42:59;97494.94;;;10.46;25.40
83483;BME280;73420;32.678;-85.380;2024-01-10T01:45:24;97487.96;;;10.35;25.48
83483;BME280;73420;32.678;-85.380;2024-01-10T01:47:50;97500.54;;;10.11;26.60
83483;BME280;73420;32.678;-85.380;2024-01-10T01:50:15;97510.92;;;11.13;25.20
83483;BME280;73420;32.678;-85.380;2024-01-10T01:52:41;97515.91;;;11.10;24.29
83483;BME280;73420;32.678;-85.380;2024-01-10T01:55:10;97523.75;;;11.04;24.98
83483;BME280;73420;32.678;-85.380;2024-01-10T01:57:32;97530.02;;;11.15;25.10
83483;BME280;73420;32.678;-85.380;2024-01-10T01:59:58;97527.40;;;11.43;24.61
83483;BME280;73420;32.678;-85.380;2024-01-10T02:02:24;97528.30;;;11.17;24.41
83483;BME280;73420;32.678;-85.380;2024-01-10T02:04:49;97530.62;;;11.17;24.40
83483;BME280;73420;32.678;-85.380;2024-01-10T02:07:15;97541.53;;;12.18;25.07
83483;BME280;73420;32.678;-85.380;2024-01-10T02:09:41;97544.88;;;12.53;24.08
83483;BME280;73420;32.678;-85.380;2024-01-10T02:12:06;97551.43;;;11.99;23.65
83483;BME280;73420;32.678;-85.380;2024-01-10T02:14:31;97557.17;;;12.20;24.35
83483;BME280;73420;32.678;-85.380;2024-01-10T02:16:57;97540.61;;;12.23;24.13
83483;BME280;73420;32.678;-85.380;2024-01-10T02:19:24;97538.39;;;12.06;23.51
83483;BME280;73420;32.678;-85.380;2024-01-10T02:21:48;97540.23;;;12.48;24.42
83483;BME280;73420;32.678;-85.380;2024-01-10T02:24:14;97538.62;;;12.81;23.02
83483;BME280;73420;32.678;-85.380;2024-01-10T02:26:39;97533.66;;;12.18;23.36
83483;BME280;73420;32.678;-85.380;2024-01-10T02:29:05;97546.55;;;11.57;23.53
83483;BME280;73420;32.678;-85.380;2024-01-10T02:31:30;97544.18;;;11.99;23.42
83483;BME280;73420;32.678;-85.380;2024-01-10T02:33:56;97540.20;;;12.03;23.26
83483;BME280;73420;32.678;-85.380;2024-01-10T02:36:21;97547.82;;;12.24;23.37
83483;BME280;73420;32.678;-85.380;2024-01-10T02:38:47;97538.90;;;12.75;22.74
83483;BME280;73420;32.678;-85.380;2024-01-10T02:41:12;97546.24;;;12.44;22.95
83483;BME280;73420;32.678;-85.380;2024-01-10T02:43:40;97545.80;;;12.27;23.26
83483;BME280;73420;32.678;-85.380;2024-01-10T02:46:04;97548.10;;;12.47;22.72
83483;BME280;73420;32.678;-85.380;2024-01-10T02:48:29;97555.01;;;12.24;24.04
83483;BME280;73420;32.678;-85.380;2024-01-10T02:50:55;97563.98;;;12.92;23.95
83483;BME280;73420;32.678;-85.380;2024-01-10T02:53:20;97552.86;;;12.23;22.89
83483;BME280;73420;32.678;-85.380;2024-01-10T02:55:46;97567.92;;;12.49;22.88
83483;BME280;73420;32.678;-85.380;2024-01-10T02:58:12;97573.28;;;11.72;22.96
83483;BME280;73420;32.678;-85.380;2024-01-10T03:00:37;97581.07;;;12.05;23.45
83483;BME280;73420;32.678;-85.380;2024-01-10T03:03:03;97589.96;;;12.45;23.50
83483;BME280;73420;32.678;-85.380;2024-01-10T03:05:28;97581.46;;;12.12;23.53
83483;BME280;73420;32.678;-85.380;2024-01-10T03:07:54;97605.42;;;12.28;23.36
83483;BME280;73420;32.678;-85.380;2024-01-10T03:10:19;97579.54;;;11.57;23.53
83483;BME280;73420;32.678;-85.380;2024-01-10T03:12:45;97586.57;;;11.51;24.53
83483;BME280;73420;32.678;-85.380;2024-01-10T03:15:11;97603.25;;;11.38;23.80
83483;BME280;73420;32.678;-85.380;2024-01-10T03:17:36;97602.85;;;11.83;23.94
83483;BME280;73420;32.678;-85.380;2024-01-10T03:20:02;97598.17;;;12.58;23.33
83483;BME280;73420;32.678;-85.380;2024-01-10T03:22:27;97605.47;;;12.55;23.67
83483;BME280;73420;32.678;-85.380;2024-01-10T03:24:53;97592.79;;;12.09;22.95
83483;BME280;73420;32.678;-85.380;2024-01-10T03:27:18;97612.95;;;11.73;23.17
83483;BME280;73420;32.678;-85.380;2024-01-10T03:29:44;97613.31;;;11.93;23.06
83483;BME280;73420;32.678;-85.380;2024-01-10T03:32:10;97619.72;;;11.71;23.70
83483;BME280;73420;32.678;-85.380;2024-01-10T03:34:35;97610.90;;;12.06;24.03
83483;BME280;73420;32.678;-85.380;2024-01-10T03:37:03;97617.36;;;12.31;23.88
83483;BME280;73420;32.678;-85.380;2024-01-10T03:39:28;97642.48;;;12.27;22.73
83483;BME280;73420;32.678;-85.380;2024-01-10T03:41:52;97639.61;;;12.22;23.29
83483;BME280;73420;32.678;-85.380;2024-01-10T03:44:28;97624.75;;;11.75;23.14
83483;BME280;73420;32.678;-85.380;2024-01-10T03:46:44;97626.66;;;11.80;23.74
83483;BME280;73420;32.678;-85.380;2024-01-10T03:49:09;97628.75;;;11.64;23.40
83483;BME280;73420;32.678;-85.380;2024-01-10T03:51:34;97637.70;;;12.41;23.80
83483;BME280;73420;32.678;-85.380;2024-01-10T03:54:00;97647.97;;;12.54;23.17
83483;BME280;73420;32.678;-85.380;2024-01-10T03:56:26;97641.55;;;12.58;22.91
83483;BME280;73420;32.678;-85.380;2024-01-10T03:58:54;97640.11;;;11.83;23.27
83483;BME280;73420;32.678;-85.380;2024-01-10T04:01:21;97650.56;;;11.80;24.37
83483;BME280;73420;32.678;-85.380;2024-01-10T04:03:42;97658.55;;;12.67;23.11
83483;BME280;73420;32.678;-85.380;2024-01-10T04:06:08;97660.88;;;13.17;23.31
83483;BME280;73420;32.678;-85.380;2024-01-10T04:08:34;97663.85;;;12.99;22.13
83483;BME280;73420;32.678;-85.380;2024-01-10T04:11:06;97671.93;;;12.23;23.32
83483;BME280;73420;32.678;-85.380;2024-01-10T04:13:25;97666.32;;;12.67;22.13
83483;BME280;73420;32.678;-85.380;2024-01-10T04:15:50;97682.73;;;12.14;23.63
83483;BME280;73420;32.678;-85.380;2024-01-10T04:18:16;97684.66;;;12.68;22.70
83483;BME280;73420;32.678;-85.380;2024-01-10T04:20:42;97678.99;;;12.29;22.91
83483;BME280;73420;32.678;-85.380;2024-01-10T04:23:07;97682.51;;;11.65;23.14
83483;BME280;73420;32.678;-85.380;2024-01-10T04:25:33;97684.06;;;11.92;23.27
83483;BME280;73420;32.678;-85.380;2024-01-10T04:27:58;97699.71;;;11.91;23.16
83483;BME280;73420;32.678;-85.380;2024-01-10T04:30:24;97684.57;;;12.09;23.00
83483;BME280;73420;32.678;-85.380;2024-01-10T04:32:50;97681.53;;;11.95;23.20
83483;BME280;73420;32.678;-85.380;2024-01-10T04:35:15;97689.38;;;12.48;24.13
83483;BME280;73420;32.678;-85.380;2024-01-10T04:37:41;97682.91;;;12.97;22.62
83483;BME280;73420;32.678;-85.380;2024-01-10T04:40:07;97689.93;;;12.91;22.96
83483;BME280;73420;32.678;-85.380;2024-01-10T04:42:32;97693.67;;;12.87;22.77
83483;BME280;73420;32.678;-85.380;2024-01-10T04:44:58;97695.20;;;13.30;22.69
83483;BME280;73420;32.678;-85.380;2024-01-10T04:47:28;97694.43;;;12.80;23.48
83483;BME280;73420;32.678;-85.380;2024-01-10T04:49:49;97696.42;;;12.72;22.33
83483;BME280;73420;32.678;-85.380;2024-01-10T04:52:14;97711.33;;;12.79;22.09
83483;BME280;73420;32.678;-85.380;2024-01-10T04:54:40;97692.73;;;12.28;22.64
83483;BME280;73420;32.678;-85.380;2024-01-10T04:57:05;97693.93;;;12.32;23.02
83483;BME280;73420;32.678;-85.380;2024-01-10T04:59:31;97700.88;;;12.95;22.91
83483;BME280;73420;32.678;-85.380;2024-01-10T05:01:57;97697.16;;;13.88;22.38
83483;BME280;73420;32.678;-85.380;2024-01-10T05:04:22;97692.09;;;13.27;21.74
83483;BME280;73420;32.678;-85.380;2024-01-10T05:06:48;97701.68;;;13.27;21.54
83483;BME280;73420;32.678;-85.380;2024-01-10T05:09:13;97702.61;;;13.31;21.84
83483;BME280;73420;32.678;-85.380;2024-01-10T05:11:47;97708.43;;;13.05;21.79
83483;BME280;73420;32.678;-85.380;2024-01-10T05:14:05;97708.37;;;12.94;22.00
83483;BME280;73420;32.678;-85.380;2024-01-10T05:16:30;97708.76;;;12.73;22.13
83483;BME280;73420;32.678;-85.380;2024-01-10T05:18:56;97719.16;;;12.62;22.39
83483;BME280;73420;32.678;-85.380;2024-01-10T05:21:22;97726.15;;;12.92;22.01
83483;BME280;73420;32.678;-85.380;2024-01-10T05:23:47;97724.37;;;12.35;22.52
83483;BME280;73420;32.678;-85.380;2024-01-10T05:26:13;97726.28;;;12.08;22.49
83483;BME280;73420;32.678;-85.380;2024-01-10T05:28:38;97735.60;;;12.91;22.59
83483;BME280;73420;32.678;-85.380;2024-01-10T05:31:04;97738.46;;;12.42;22.37
83483;BME280;73420;32.678;-85.380;2024-01-10T05:33:29;97754.89;;;12.09;22.54
83483;BME280;73420;32.678;-85.380;2024-01-10T05:35:57;97753.92;;;11.50;23.07
83483;BME280;73420;32.678;-85.380;2024-01-10T05:38:21;97755.16;;;11.97;23.87
83483;BME280;73420;32.678;-85.380;2024-01-10T05:40:46;97746.04;;;11.98;22.60
83483;BME280;73420;32.678;-85.380;2024-01-10T05:43:12;97748.41;;;12.96;22.76
83483;BME280;73420;32.678;-85.380;2024-01-10T05:45:37;97756.71;;;12.80;22.07
83483;BME280;73420;32.678;-85.380;2024-01-10T05:48:04;97769.37;;;13.05;22.25
83483;BME280;73420;32.678;-85.380;2024-01-10T05:50:28;97764.09;;;12.99;22.52
83483;BME280;73420;32.678;-85.380;2024-01-10T05:52:54;97758.60;;;12.18;21.96
83483;BME280;73420;32.678;-85.380;2024-01-10T05:55:20;97756.67;;;11.93;22.92
83483;BME280;73420;32.678;-85.380;2024-01-10T05:57:45;97775.43;;;11.78;23.62
83483;BME280;73420;32.678;-85.380;2024-01-10T06:00:17;97778.13;;;12.04;23.48
83483;BME280;73420;32.678;-85.380;2024-01-10T06:02:37;97782.97;;;12.25;22.86
83483;BME280;73420;32.678;-85.380;2024-01-10T06:05:02;97792.84;;;12.38;23.20
83483;BME280;73420;32.678;-85.380;2024-01-10T06:07:28;97803.95;;;12.44;22.83
83483;BME280;73420;32.678;-85.380;2024-01-10T06:09:53;97804.93;;;12.69;22.67
83483;BME280;73420;32.678;-85.380;2024-01-10T06:12:19;97806.28;;;12.58;22.32
83483;BME280;73420;32.678;-85.380;2024-01-10T06:14:45;97810.57;;;12.66;23.37
83483;BME280;73420;32.678;-85.380;2024-01-10T06:17:10;97821.60;;;12.71;23.16
83483;BME280;73420;32.678;-85.380;2024-01-10T06:19:36;97833.92;;;12.66;23.25
83483;BME280;73420;32.678;-85.380;2024-01-10T06:22:01;97835.73;;;12.07;23.32
83483;BME280;73420;32.678;-85.380;2024-01-10T06:24:29;97864.25;;;11.79;23.39
83483;BME280;73420;32.678;-85.380;2024-01-10T06:26:52;97842.11;;;11.52;24.19
83483;BME280;73420;32.678;-85.380;2024-01-10T06:29:18;97846.50;;;11.27;23.99
83483;BME280;73420;32.678;-85.380;2024-01-10T06:31:43;97840.89;;;11.07;23.74
83483;BME280;73420;32.678;-85.380;2024-01-10T06:34:09;97842.53;;;11.92;23.73
83483;BME280;73420;32.678;-85.380;2024-01-10T06:36:42;97828.41;;;12.04;23.05
83483;BME280;73420;32.678;-85.380;2024-01-10T06:39:01;97832.72;;;12.10;23.35
83483;BME280;73420;32.678;-85.380;2024-01-10T06:41:26;97821.14;;;11.57;23.69
83483;BME280;73420;32.678;-85.380;2024-01-10T06:43:52;97820.22;;;11.00;23.47
83483;BME280;73420;32.678;-85.380;2024-01-10T06:46:17;97804.62;;;11.11;23.19
83483;BME280;73420;32.678;-85.380;2024-01-10T06:48:43;97793.43;;;10.97;23.80
83483;BME280;73420;32.678;-85.380;2024-01-10T06:51:10;97802.70;;;10.63;23.67
83483;BME280;73420;32.678;-85.380;2024-01-10T06:53:34;97811.08;;;11.06;23.97
83483;BME280;73420;32.678;-85.380;2024-01-10T06:55:59;97826.66;;;11.15;24.18
83483;BME280;73420;32.678;-85.380;2024-01-10T06:58:25;97829.95;;;11.13;23.51
83483;BME280;73420;32.678;-85.380;2024-01-10T07:00:51;97840.96;;;11.13;23.96
83483;BME280;73420;32.678;-85.380;2024-01-10T07:03:16;97845.74;;;11.16;24.10
83483;BME280;73420;32.678;-85.380;2024-01-10T07:05:42;97839.41;;;10.72;25.06
83483;BME280;73420;32.678;-85.380;2024-01-10T07:08:08;97856.26;;;11.45;23.93
83483;BME280;73420;32.678;-85.380;2024-01-10T07:10:33;97855.94;;;10.70;23.96
83483;BME280;73420;32.678;-85.380;2024-01-10T07:12:59;97861.68;;;11.62;23.93
83483;BME280;73420;32.678;-85.380;2024-01-10T07:15:24;97850.60;;;10.58;24.16
83483;BME280;73420;32.678;-85.380;2024-01-10T07:17:50;97863.89;;;10.41;23.79
83483;BME280;73420;32.678;-85.380;2024-01-10T07:20:16;97882.19;;;11.04;23.78
83483;BME280;73420;32.678;-85.380;2024-01-10T07:22:41;97885.86;;;11.13;23.57
83483;BME280;73420;32.678;-85.380;2024-01-10T07:25:08;97886.28;;;11.41;23.01
83483;BME280;73420;32.678;-85.380;2024-01-10T07:27:33;97886.53;;;11.50;23.01
83483;BME280;73420;32.678;-85.380;2024-01-10T07:29:58;97871.61;;;11.57;23.49
83483;BME280;73420;32.678;-85.380;2024-01-10T07:32:24;97878.18;;;11.76;23.19
83483;BME280;73420;32.678;-85.380;2024-01-10T07:34:50;97881.28;;;11.84;23.02
83483;BME280;73420;32.678;-85.380;2024-01-10T07:37:16;97894.67;;;11.39;22.70
83483;BME280;73420;32.678;-85.380;2024-01-10T07:39:41;97906.30;;;11.80;22.92
83483;BME280;73420;32.678;-85.380;2024-01-10T07:42:07;97902.21;;;11.96;23.12
83483;BME280;73420;32.678;-85.380;2024-01-10T07:44:32;97901.45;;;11.74;22.64
83483;BME280;73420;32.678;-85.380;2024-01-10T07:46:58;97911.71;;;11.28;22.77
83483;BME280;73420;32.678;-85.380;2024-01-10T07:49:27;97913.13;;;11.25;23.48
83483;BME280;73420;32.678;-85.380;2024-01-10T07:51:49;97916.39;;;11.55;23.13
83483;BME280;73420;32.678;-85.380;2024-01-10T07:54:15;97908.49;;;11.64;23.36
83483;BME280;73420;32.678;-85.380;2024-01-10T07:56:40;97908.63;;;11.15;23.39
83483;BME280;73420;32.678;-85.380;2024-01-10T07:59:06;97919.95;;;11.07;23.39
83483;BME280;73420;32.678;-85.380;2024-01-10T08:01:33;97925.40;;;11.17;23.37
83483;BME280;73420;32.678;-85.380;2024-01-10T08:03:57;97919.11;;;10.88;22.85
83483;BME280;73420;32.678;-85.380;2024-01-10T08:06:23;97913.61;;;11.00;23.58
83483;BME280;73420;32.678;-85.380;2024-01-10T08:08:49;97923.36;;;11.04;23.55
83483;BME280;73420;32.678;-85.380;2024-01-10T08:11:14;97936.02;;;11.55;23.09
83483;BME280;73420;32.678;-85.380;2024-01-10T08:13:43;97953.19;;;11.10;23.16
83483;BME280;73420;32.678;-85.380;2024-01-10T08:16:06;97969.19;;;11.11;23.24
83483;BME280;73420;32.678;-85.380;2024-01-10T08:18:31;97979.17;;;10.87;23.22
83483;BME280;73420;32.678;-85.380;2024-01-10T08:20:57;97978.83;;;11.16;23.55
83483;BME280;73420;32.678;-85.380;2024-01-10T08:23:22;97980.04;;;11.56;23.33
83483;BME280;73420;32.678;-85.380;2024-01-10T08:25:48;97991.54;;;11.11;22.99
83483;BME280;73420;32.678;-85.380;2024-01-10T08:28:14;98008.63;;;11.27;23.17
83483;BME280;73420;32.678;-85.380;2024-01-10T08:30:39;98009.02;;;11.14;22.69
83483;BME280;73420;32.678;-85.380;2024-01-10T08:33:05;98010.32;;;11.24;23.42
83483;BME280;73420;32.678;-85.380;2024-01-10T08:35:30;98002.48;;;11.54;22.42
83483;BME280;73420;32.678;-85.380;2024-01-10T08:37:56;98000.28;;;11.31;23.20
83483;BME280;73420;32.678;-85.380;2024-01-10T08:40:22;97991.73;;;11.24;23.27
83483;BME280;73420;32.678;-85.380;2024-01-10T08:42:47;97989.42;;;10.98;23.16
83483;BME280;73420;32.678;-85.380;2024-01-10T08:45:13;97992.23;;;10.84;23.49
83483;BME280;73420;32.678;-85.380;2024-01-10T08:47:39;98002.39;;;11.24;23.31
83483;BME280;73420;32.678;-85.380;2024-01-10T08:50:06;97995.53;;;11.38;23.30
83483;BME280;73420;32.678;-85.380;2024-01-10T08:52:30;97998.28;;;10.96;23.45
83483;BME280;73420;32.678;-85.380;2024-01-10T08:54:56;97999.07;;;10.88;22.90
83483;BME280;73420;32.678;-85.380;2024-01-10T08:57:21;97993.25;;;10.90;23.23
83483;BME280;73420;32.678;-85.380;2024-01-10T08:59:47;98001.63;;;11.36;23.42
83483;BME280;73420;32.678;-85.380;2024-01-10T09:02:13;98005.34;;;11.00;22.91
83483;BME280;73420;32.678;-85.380;2024-01-10T09:04:38;98016.19;;;10.58;23.53
83483;BME280;73420;32.678;-85.380;2024-01-10T09:07:04;98016.58;;;11.03;23.25
83483;BME280;73420;32.678;-85.380;2024-01-10T09:09:30;98020.08;;;11.27;23.14
83483;BME280;73420;32.678;-85.380;2024-01-10T09:11:55;98022.72;;;10.81;23.02
83483;BME280;73420;32.678;-85.380;2024-01-10T09:14:22;98023.76;;;10.71;23.29
83483;BME280;73420;32.678;-85.380;2024-01-10T09:16:47;98032.01;;;10.62;23.57
83483;BME280;73420;32.678;-85.380;2024-01-10T09:19:12;98022.34;;;10.60;23.53
83483;BME280;73420;32.678;-85.380;2024-01-10T09:21:38;98025.23;;;11.02;23.77
83483;BME280;73420;32.678;-85.380;2024-01-10T09:24:04;98023.06;;;11.08;23.17
83483;BME280;73420;32.678;-85.380;2024-01-10T09:26:30;98024.21;;;10.87;23.69
83483;BME280;73420;32.678;-85.380;2024-01-10T09:28:55;98029.49;;;10.93;23.36
83483;BME280;73420;32.678;-85.380;2024-01-10T09:31:21;98032.49;;;10.77;23.31
83483;BME280;73420;32.678;-85.380;2024-01-10T09:33:47;98028.74;;;10.71;24.03
83483;BME280;73420;32.678;-85.380;2024-01-10T09:36:12;98029.81;;;11.20;24.03
83483;BME280;73420;32.678;-85.380;2024-01-10T09:38:38;98024.86;;;11.31;23.57
83483;BME280;73420;32.678;-85.380;2024-01-10T09:41:04;98023.34;;;11.16;23.39
83483;BME280;73420;32.678;-85.380;2024-01-10T09:43:30;98009.26;;;11.44;23.88
83483;BME280;73420;32.678;-85.380;2024-01-10T09:45:57;98004.18;;;11.42;23.22
83483;BME280;73420;32.678;-85.380;2024-01-10T09:48:21;98016.53;;;11.35;23.11
83483;BME280;73420;32.678;-85.380;2024-01-10T09:50:49;98021.23;;;11.29;23.91
83483;BME280;73420;32.678;-85.380;2024-01-10T09:53:19;98007.62;;;11.59;23.59
83483;BME280;73420;32.678;-85.380;2024-01-10T09:55:38;98011.72;;;11.43;22.96
83483;BME280;73420;32.678;-85.380;2024-01-10T09:58:05;98031.48;;;10.82;23.32
83483;BME280;73420;32.678;-85.380;2024-01-10T10:00:29;98056.59;;;10.98;23.95
83483;BME280;73420;32.678;-85.380;2024-01-10T10:02:56;98066.39;;;11.12;23.69
83483;BME280;73420;32.678;-85.380;2024-01-10T10:05:21;98071.83;;;11.42;23.68
83483;BME280;73420;32.678;-85.380;2024-01-10T10:07:47;98065.05;;;11.18;23.21
83483;BME280;73420;32.678;-85.380;2024-01-10T10:10:12;98070.51;;;11.78;23.37
83483;BME280;73420;32.678;-85.380;2024-01-10T10:12:43;98079.15;;;11.00;23.10
83483;BME280;73420;32.678;-85.380;2024-01-10T10:15:11;98076.10;;;10.41;23.76
83483;BME280;73420;32.678;-85.380;2024-01-10T10:17:29;98081.53;;;10.97;24.05
83483;BME280;73420;32.678;-85.380;2024-01-10T10:20:03;98100.91;;;10.83;24.21
83483;BME280;73420;32.678;-85.380;2024-01-10T10:22:21;98108.76;;;11.13;24.08
83483;BME280;73420;32.678;-85.380;2024-01-10T10:24:48;98094.48;;;11.22;23.83
83483;BME280;73420;32.678;-85.380;2024-01-10T10:27:12;98086.35;;;11.40;23.90
83483;BME280;73420;32.678;-85.380;2024-01-10T10:29:38;98092.19;;;10.86;23.72
83483;BME280;73420;32.678;-85.380;2024-01-10T10:32:04;98097.57;;;10.80;24.54
83483;BME280;73420;32.678;-85.380;2024-01-10T10:34:31;98111.20;;;10.60;24.11
83483;BME280;73420;32.678;-85.380;2024-01-10T10:36:55;98104.92;;;10.87;24.35
83483;BME280;73420;32.678;-85.380;2024-01-10T10:39:21;98104.81;;;10.97;24.08
83483;BME280;73420;32.678;-85.380;2024-01-10T10:41:47;98104.12;;;10.96;23.82
83483;BME280;73420;32.678;-85.380;2024-01-10T10:44:13;98117.05;;;11.61;23.59
83483;BME280;73420;32.678;-85.380;2024-01-10T10:46:38;98120.44;;;11.18;23.58
83483;BME280;73420;32.678;-85.380;2024-01-10T10:49:09;98143.91;;;11.03;23.83
83483;BME280;73420;32.678;-85.380;2024-01-10T10:51:34;98158.87;;;11.27;23.69
83483;BME280;73420;32.678;-85.380;2024-01-10T10:53:55;98161.79;;;11.07;23.62
83483;BME280;73420;32.678;-85.380;2024-01-10T10:56:21;98159.34;;;11.16;23.42
83483;BME280;73420;32.678;-85.380;2024-01-10T10:58:46;98155.56;;;11.09;23.42
83483;BME280;73420;32.678;-85.380;2024-01-10T11:01:13;98148.80;;;10.97;23.48
83483;BME280;73420;32.678;-85.380;2024-01-10T11:03:41;98154.88;;;11.03;23.44
83483;BME280;73420;32.678;-85.380;2024-01-10T11:06:04;98152.28;;;10.85;23.65
83483;BME280;73420;32.678;-85.380;2024-01-10T11:08:31;98154.76;;;10.82;23.52
83483;BME280;73420;32.678;-85.380;2024-01-10T11:10:55;98158.25;;;10.89;23.75
83483;BME280;73420;32.678;-85.380;2024-01-10T11:13:27;98156.86;;;10.80;23.44
83483;BME280;73420;32.678;-85.380;2024-01-10T11:16:02;98158.03;;;10.78;23.49
83483;BME280;73420;32.678;-85.380;2024-01-10T11:18:26;98152.81;;;10.72;23.75
83483;BME280;73420;32.678;-85.380;2024-01-10T11:20:47;98165.23;;;10.75;23.71
83483;BME280;73420;32.678;-85.380;2024-01-10T11:25:30;98172.84;;;10.46;23.67
83483;BME280;73420;32.678;-85.380;2024-01-10T11:27:55;98172.90;;;10.64;23.88
83483;BME280;73420;32.678;-85.380;2024-01-10T11:30:32;98178.59;;;10.88;23.35
83483;BME280;73420;32.678;-85.380;2024-01-10T11:32:46;98181.83;;;10.61;23.56
83483;BME280;73420;32.678;-85.380;2024-01-10T11:35:19;98184.88;;;10.58;23.76
83483;BME280;73420;32.678;-85.380;2024-01-10T11:37:43;98182.06;;;10.40;23.93
83483;BME280;73420;32.678;-85.380;2024-01-10T11:40:07;98185.62;;;10.39;23.61
83483;BME280;73420;32.678;-85.380;2024-01-10T11:44:54;98189.82;;;10.19;24.05
83483;BME280;73420;32.678;-85.380;2024-01-10T11:47:20;98180.85;;;10.32;24.10
83483;BME280;73420;32.678;-85.380;2024-01-10T11:49:53;98180.12;;;10.41;24.21
83483;BME280;73420;32.678;-85.380;2024-01-10T11:52:12;98191.17;;;10.11;24.55
83483;BME280;73420;32.678;-85.380;2024-01-10T11:54:39;98189.60;;;10.01;24.36
83483;BME280;73420;32.678;-85.380;2024-01-10T11:57:03;98193.03;;;10.12;24.16
83483;BME280;73420;32.678;-85.380;2024-01-10T11:59:29;98201.88;;;10.20;24.01
83483;BME280;73420;32.678;-85.380;2024-01-10T12:01:54;98211.72;;;10.73;23.82
83483;BME280;73420;32.678;-85.380;2024-01-10T12:04:20;98220.02;;;10.20;23.94
83483;BME280;73420;32.678;-85.380;2024-01-10T12:06:45;98228.89;;;10.46;24.13
83483;BME280;73420;32.678;-85.380;2024-01-10T12:09:12;98232.52;;;10.18;24.18
83483;BME280;73420;32.678;-85.380;2024-01-10T12:11:38;98229.74;;;10.61;23.97
83483;BME280;73420;32.678;-85.380;2024-01-10T12:14:05;98228.01;;;10.63;23.99
83483;BME280;73420;32.678;-85.380;2024-01-10T12:16:28;98222.90;;;10.43;24.05
83483;BME280;73420;32.678;-85.380;2024-01-10T12:18:54;98213.92;;;10.62;23.83
83483;BME280;73420;32.678;-85.380;2024-01-10T12:21:20;98218.35;;;10.64;23.88
83483;BME280;73420;32.678;-85.380;2024-01-10T12:23:45;98230.77;;;10.56;24.02
83483;BME280;73420;32.678;-85.380;2024-01-10T12:26:11;98228.85;;;10.39;24.15
83483;BME280;73420;32.678;-85.380;2024-01-10T12:28:37;98235.09;;;10.39;23.90
83483;BME280;73420;32.678;-85.380;2024-01-10T12:31:03;98248.88;;;10.11;24.15
83483;BME280;73420;32.678;-85.380;2024-01-10T12:33:28;98253.90;;;10.11;24.39
83483;BME280;73420;32.678;-85.380;2024-01-10T12:36:06;98259.31;;;10.02;24.35